sensor_id;sensor_type;location;lat;lon;timestamp;pressure;altitude;pressure_sealevel;temperature;humidity
43701;BME280;58809;47.984;7.964;2023-06-14T00:00:41;96665.41;;;13.24;53.70
43701;BME280;58809;47.984;7.964;2023-06-14T00:03:44;96674.84;;;13.13;54.17
43701;BME280;58809;47.984;7.964;2023-06-14T00:06:46;96664.22;;;13.13;54.39
43701;BME280;58809;47.984;7.964;2023-06-14T00:09:47;96660.81;;;12.99;54.08
43701;BME280;58809;47.984;7.964;2023-06-14T00:12:49;96668.38;;;13.02;54.62
43701;BME280;58809;47.984;7.964;2023-06-14T00:15:51;96661.44;;;12.95;54.54
43701;BME280;58809;47.984;7.964;2023-06-14T00:18:56;96667.00;;;12.86;54.62
43701;BME280;58809;47.984;7.964;2023-06-14T00:21:57;96666.78;;;12.75;55.06
43701;BME280;58809;47.984;7.964;2023-06-14T00:24:59;96664.38;;;12.73;55.80
43701;BME280;58809;47.984;7.964;2023-06-14T00:28:15;96660.69;;;12.67;55.85
43701;BME280;58809;47.984;7.964;2023-06-14T00:31:17;96661.94;;;12.58;55.97
43701;BME280;58809;47.984;7.964;2023-06-14T00:34:19;96652.16;;;12.52;56.09
43701;BME280;58809;47.984;7.964;2023-06-14T00:37:21;96657.47;;;12.45;56.22
43701;BME280;58809;47.984;7.964;2023-06-14T00:40:23;96659.50;;;12.43;56.40
43701;BME280;58809;47.984;7.964;2023-06-14T00:43:24;96660.75;;;12.41;56.87
43701;BME280;58809;47.984;7.964;2023-06-14T00:46:27;96660.75;;;12.34;56.66
43701;BME280;58809;47.984;7.964;2023-06-14T00:49:30;96656.88;;;12.30;56.98
43701;BME280;58809;47.984;7.964;2023-06-14T00:52:32;96657.50;;;12.25;57.05
43701;BME280;58809;47.984;7.964;2023-06-14T00:55:34;96666.25;;;12.19;57.71
43701;BME280;58809;47.984;7.964;2023-06-14T00:58:36;96659.13;;;12.06;57.82
43701;BME280;58809;47.984;7.964;2023-06-14T01:01:38;96655.47;;;12.07;57.29
43701;BME280;58809;47.984;7.964;2023-06-14T01:04:45;96655.47;;;12.07;57.67
43701;BME280;58809;47.984;7.964;2023-06-14T01:08:13;96660.97;;;11.92;57.97
43701;BME280;58809;47.984;7.964;2023-06-14T01:11:26;96662.53;;;11.80;58.04
43701;BME280;58809;47.984;7.964;2023-06-14T01:14:31;96662.13;;;11.77;58.27
43701;BME280;58809;47.984;7.964;2023-06-14T01:17:33;96669.03;;;11.78;59.39
43701;BME280;58809;47.984;7.964;2023-06-14T01:20:35;96666.63;;;11.76;58.18
43701;BME280;58809;47.984;7.964;2023-06-14T01:23:39;96657.81;;;11.75;58.92
43701;BME280;58809;47.984;7.964;2023-06-14T01:26:41;96659.28;;;11.78;58.98
43701;BME280;58809;47.984;7.964;2023-06-14T01:29:47;96656.81;;;11.77;58.54
43701;BME280;58809;47.984;7.964;2023-06-14T01:32:49;96660.28;;;11.70;58.89
43701;BME280;58809;47.984;7.964;2023-06-14T01:35:52;96661.47;;;11.61;58.95
43701;BME280;58809;47.984;7.964;2023-06-14T01:38:54;96659.84;;;11.60;58.87
43701;BME280;58809;47.984;7.964;2023-06-14T01:41:58;96666.38;;;11.64;58.89
43701;BME280;58809;47.984;7.964;2023-06-14T01:45:00;96661.09;;;11.58;58.89
43701;BME280;58809;47.984;7.964;2023-06-14T01:48:03;96659.59;;;11.48;59.56
43701;BME280;58809;47.984;7.964;2023-06-14T01:51:06;96662.22;;;11.35;59.83
43701;BME280;58809;47.984;7.964;2023-06-14T01:54:07;96664.03;;;11.28;60.58
43701;BME280;58809;47.984;7.964;2023-06-14T01:57:09;96670.75;;;11.24;59.90
43701;BME280;58809;47.984;7.964;2023-06-14T02:00:12;96662.19;;;11.22;60.64
43701;BME280;58809;47.984;7.964;2023-06-14T02:03:14;96660.97;;;11.17;59.95
43701;BME280;58809;47.984;7.964;2023-06-14T02:06:16;96664.66;;;11.23;60.29
43701;BME280;58809;47.984;7.964;2023-06-14T02:09:18;96665.06;;;11.27;59.96
43701;BME280;58809;47.984;7.964;2023-06-14T02:12:20;96668.09;;;11.24;59.82
43701;BME280;58809;47.984;7.964;2023-06-14T02:15:21;96670.34;;;11.27;59.88
43701;BME280;58809;47.984;7.964;2023-06-14T02:18:23;96670.56;;;11.25;60.05
43701;BME280;58809;47.984;7.964;2023-06-14T02:21:24;96667.72;;;11.33;59.68
43701;BME280;58809;47.984;7.964;2023-06-14T02:24:26;96668.75;;;11.32;59.84
43701;BME280;58809;47.984;7.964;2023-06-14T02:27:28;96667.47;;;11.22;59.93
43701;BME280;58809;47.984;7.964;2023-06-14T02:30:29;96670.09;;;11.08;60.23
43701;BME280;58809;47.984;7.964;2023-06-14T02:33:32;96669.03;;;11.03;60.11
43701;BME280;58809;47.984;7.964;2023-06-14T02:36:34;96673.88;;;10.92;61.25
43701;BME280;58809;47.984;7.964;2023-06-14T02:39:36;96671.72;;;10.74;61.79
43701;BME280;58809;47.984;7.964;2023-06-14T02:42:38;96675.75;;;10.64;62.47
43701;BME280;58809;47.984;7.964;2023-06-14T02:45:39;96676.72;;;10.56;62.22
43701;BME280;58809;47.984;7.964;2023-06-14T02:48:42;96676.09;;;10.54;62.88
43701;BME280;58809;47.984;7.964;2023-06-14T02:51:43;96681.91;;;10.43;63.07
43701;BME280;58809;47.984;7.964;2023-06-14T02:54:45;96678.84;;;10.39;63.14
43701;BME280;58809;47.984;7.964;2023-06-14T02:57:49;96685.31;;;10.36;63.04
43701;BME280;58809;47.984;7.964;2023-06-14T03:00:51;96685.53;;;10.35;62.73
43701;BME280;58809;47.984;7.964;2023-06-14T03:03:54;96690.28;;;10.25;62.82
43701;BME280;58809;47.984;7.964;2023-06-14T03:06:56;96700.16;;;10.09;63.48
43701;BME280;58809;47.984;7.964;2023-06-14T03:09:58;96695.66;;;10.10;63.66
43701;BME280;58809;47.984;7.964;2023-06-14T03:12:59;96695.59;;;10.03;63.63
43701;BME280;58809;47.984;7.964;2023-06-14T03:16:02;96702.53;;;10.04;63.47
43701;BME280;58809;47.984;7.964;2023-06-14T03:19:07;96705.09;;;9.97;63.62
43701;BME280;58809;47.984;7.964;2023-06-14T03:22:09;96698.22;;;9.96;63.52
43701;BME280;58809;47.984;7.964;2023-06-14T03:25:14;96711.72;;;10.08;63.90
43701;BME280;58809;47.984;7.964;2023-06-14T03:28:18;96715.75;;;10.04;63.48
43701;BME280;58809;47.984;7.964;2023-06-14T03:31:20;96707.13;;;9.95;64.04
43701;BME280;58809;47.984;7.964;2023-06-14T03:34:22;96714.78;;;9.90;64.73
43701;BME280;58809;47.984;7.964;2023-06-14T03:37:24;96715.25;;;9.94;64.55
43701;BME280;58809;47.984;7.964;2023-06-14T03:40:26;96720.34;;;9.95;64.49
43701;BME280;58809;47.984;7.964;2023-06-14T03:43:34;96719.34;;;9.96;64.16
43701;BME280;58809;47.984;7.964;2023-06-14T03:46:36;96728.91;;;9.97;63.80
43701;BME280;58809;47.984;7.964;2023-06-14T03:49:38;96730.03;;;9.88;64.81
43701;BME280;58809;47.984;7.964;2023-06-14T03:52:40;96730.03;;;9.88;64.48
43701;BME280;58809;47.984;7.964;2023-06-14T03:55:45;96734.75;;;9.93;64.64
43701;BME280;58809;47.984;7.964;2023-06-14T03:58:49;96731.09;;;9.94;64.86
43701;BME280;58809;47.984;7.964;2023-06-14T04:01:54;96727.06;;;9.98;65.87
43701;BME280;58809;47.984;7.964;2023-06-14T04:04:56;96735.44;;;10.01;64.75
43701;BME280;58809;47.984;7.964;2023-06-14T04:07:57;96738.47;;;9.98;64.58
43701;BME280;58809;47.984;7.964;2023-06-14T04:11:00;96743.53;;;10.00;65.48
43701;BME280;58809;47.984;7.964;2023-06-14T04:14:02;96747.66;;;10.02;64.78
43701;BME280;58809;47.984;7.964;2023-06-14T04:17:04;96739.53;;;10.04;64.90
43701;BME280;58809;47.984;7.964;2023-06-14T04:20:06;96747.34;;;10.12;64.90
43701;BME280;58809;47.984;7.964;2023-06-14T04:23:11;96749.88;;;10.20;65.37
43701;BME280;58809;47.984;7.964;2023-06-14T04:26:14;96760.22;;;10.37;64.14
43701;BME280;58809;47.984;7.964;2023-06-14T04:29:18;96769.91;;;10.51;63.79
43701;BME280;58809;47.984;7.964;2023-06-14T04:32:28;96758.38;;;10.66;63.17
43701;BME280;58809;47.984;7.964;2023-06-14T04:35:36;96764.03;;;10.56;63.97
43701;BME280;58809;47.984;7.964;2023-06-14T04:38:39;96769.66;;;10.74;63.89
43701;BME280;58809;47.984;7.964;2023-06-14T04:41:40;96772.06;;;11.04;63.90
43701;BME280;58809;47.984;7.964;2023-06-14T04:44:43;96774.66;;;11.26;62.39
43701;BME280;58809;47.984;7.964;2023-06-14T04:47:46;96778.44;;;11.51;62.65
43701;BME280;58809;47.984;7.964;2023-06-14T04:50:48;96778.38;;;11.80;62.26
43701;BME280;58809;47.984;7.964;2023-06-14T04:53:54;96777.94;;;11.83;62.10
43701;BME280;58809;47.984;7.964;2023-06-14T04:56:59;96778.75;;;11.77;62.18
43701;BME280;58809;47.984;7.964;2023-06-14T05:00:02;96779.75;;;11.75;62.50
43701;BME280;58809;47.984;7.964;2023-06-14T05:03:07;96783.94;;;11.98;61.95
43701;BME280;58809;47.984;7.964;2023-06-14T05:06:09;96785.84;;;12.24;61.48
43701;BME280;58809;47.984;7.964;2023-06-14T05:09:12;96783.22;;;12.44;60.94
43701;BME280;58809;47.984;7.964;2023-06-14T05:12:13;96782.19;;;12.59;61.00
43701;BME280;58809;47.984;7.964;2023-06-14T05:15:16;96785.66;;;12.73;61.43
43701;BME280;58809;47.984;7.964;2023-06-14T05:18:18;96784.22;;;12.83;60.68
43701;BME280;58809;47.984;7.964;2023-06-14T05:21:20;96785.44;;;12.94;60.50
43701;BME280;58809;47.984;7.964;2023-06-14T05:24:21;96787.66;;;13.04;59.71
43701;BME280;58809;47.984;7.964;2023-06-14T05:27:23;96788.91;;;13.08;60.21
43701;BME280;58809;47.984;7.964;2023-06-14T05:30:26;96787.84;;;13.22;60.24
43701;BME280;58809;47.984;7.964;2023-06-14T05:33:28;96789.88;;;13.40;59.37
43701;BME280;58809;47.984;7.964;2023-06-14T05:36:31;96793.06;;;13.62;58.51
43701;BME280;58809;47.984;7.964;2023-06-14T05:39:32;96792.84;;;13.71;57.87
43701;BME280;58809;47.984;7.964;2023-06-14T05:42:34;96792.38;;;13.87;58.16
43701;BME280;58809;47.984;7.964;2023-06-14T05:45:35;96789.25;;;13.97;58.01
43701;BME280;58809;47.984;7.964;2023-06-14T05:48:37;96788.94;;;14.12;57.87
43701;BME280;58809;47.984;7.964;2023-06-14T05:51:38;96792.97;;;14.28;57.52
43701;BME280;58809;47.984;7.964;2023-06-14T05:54:40;96800.63;;;14.42;56.89
43701;BME280;58809;47.984;7.964;2023-06-14T05:57:42;96794.03;;;14.52;56.61
43701;BME280;58809;47.984;7.964;2023-06-14T06:00:45;96798.50;;;14.58;56.43
43701;BME280;58809;47.984;7.964;2023-06-14T06:03:47;96799.44;;;14.70;56.58
43701;BME280;58809;47.984;7.964;2023-06-14T06:06:49;96793.41;;;14.81;56.41
43701;BME280;58809;47.984;7.964;2023-06-14T06:09:51;96788.78;;;14.95;56.82
43701;BME280;58809;47.984;7.964;2023-06-14T06:12:52;96782.91;;;15.12;56.81
43701;BME280;58809;47.984;7.964;2023-06-14T06:15:55;96779.72;;;15.21;56.83
43701;BME280;58809;47.984;7.964;2023-06-14T06:18:57;96789.78;;;15.38;56.71
43701;BME280;58809;47.984;7.964;2023-06-14T06:21:59;96799.44;;;15.57;55.71
43701;BME280;58809;47.984;7.964;2023-06-14T06:25:01;96792.03;;;15.78;55.38
43701;BME280;58809;47.984;7.964;2023-06-14T06:28:03;96789.44;;;15.90;54.80
43701;BME280;58809;47.984;7.964;2023-06-14T06:31:04;96801.09;;;16.07;54.09
43701;BME280;58809;47.984;7.964;2023-06-14T06:34:06;96802.94;;;16.25;53.71
43701;BME280;58809;47.984;7.964;2023-06-14T06:37:08;96791.59;;;16.42;53.19
43701;BME280;58809;47.984;7.964;2023-06-14T06:40:09;96796.88;;;16.60;53.24
43701;BME280;58809;47.984;7.964;2023-06-14T06:43:11;96800.63;;;16.83;52.97
43701;BME280;58809;47.984;7.964;2023-06-14T06:46:21;96794.75;;;17.04;52.23
43701;BME280;58809;47.984;7.964;2023-06-14T06:49:23;96798.56;;;17.20;51.93
43701;BME280;58809;47.984;7.964;2023-06-14T06:52:24;96802.88;;;17.33;51.77
43701;BME280;58809;47.984;7.964;2023-06-14T06:55:26;96800.75;;;17.47;51.57
43701;BME280;58809;47.984;7.964;2023-06-14T06:58:27;96799.09;;;17.58;51.27
43701;BME280;58809;47.984;7.964;2023-06-14T07:01:29;96800.81;;;17.76;50.91
43701;BME280;58809;47.984;7.964;2023-06-14T07:04:31;96799.38;;;17.97;50.72
43701;BME280;58809;47.984;7.964;2023-06-14T07:07:32;96808.88;;;18.16;50.25
43701;BME280;58809;47.984;7.964;2023-06-14T07:10:34;96804.09;;;18.35;49.14
43701;BME280;58809;47.984;7.964;2023-06-14T07:13:36;96803.59;;;18.50;48.25
43701;BME280;58809;47.984;7.964;2023-06-14T07:16:38;96796.22;;;18.57;47.80
43701;BME280;58809;47.984;7.964;2023-06-14T07:19:40;96796.91;;;18.81;46.99
43701;BME280;58809;47.984;7.964;2023-06-14T07:22:43;96795.53;;;18.96;47.58
43701;BME280;58809;47.984;7.964;2023-06-14T07:25:45;96803.00;;;19.11;47.78
43701;BME280;58809;47.984;7.964;2023-06-14T07:28:47;96809.56;;;19.20;47.92
43701;BME280;58809;47.984;7.964;2023-06-14T07:31:50;96808.09;;;19.29;47.83
43701;BME280;58809;47.984;7.964;2023-06-14T07:34:51;96813.53;;;19.34;47.78
43701;BME280;58809;47.984;7.964;2023-06-14T07:37:53;96804.63;;;19.51;47.17
43701;BME280;58809;47.984;7.964;2023-06-14T07:40:54;96805.31;;;19.63;46.10
43701;BME280;58809;47.984;7.964;2023-06-14T07:43:56;96808.00;;;19.63;45.61
43701;BME280;58809;47.984;7.964;2023-06-14T07:46:58;96802.22;;;19.71;45.14
43701;BME280;58809;47.984;7.964;2023-06-14T07:50:02;96806.97;;;19.86;45.46
43701;BME280;58809;47.984;7.964;2023-06-14T07:53:04;96805.97;;;19.92;45.19
43701;BME280;58809;47.984;7.964;2023-06-14T07:56:06;96808.41;;;19.94;44.88
43701;BME280;58809;47.984;7.964;2023-06-14T07:59:07;96812.97;;;19.93;44.88
43701;BME280;58809;47.984;7.964;2023-06-14T08:02:09;96817.03;;;19.96;44.94
43701;BME280;58809;47.984;7.964;2023-06-14T08:05:11;96811.66;;;19.96;45.13
43701;BME280;58809;47.984;7.964;2023-06-14T08:08:13;96802.09;;;20.05;45.63
43701;BME280;58809;47.984;7.964;2023-06-14T08:11:15;96806.81;;;20.20;45.58
43701;BME280;58809;47.984;7.964;2023-06-14T08:14:16;96821.13;;;20.26;45.49
43701;BME280;58809;47.984;7.964;2023-06-14T08:17:18;96801.19;;;20.22;45.74
43701;BME280;58809;47.984;7.964;2023-06-14T08:20:19;96787.75;;;20.22;45.59
43701;BME280;58809;47.984;7.964;2023-06-14T08:23:21;96792.78;;;20.40;45.63
43701;BME280;58809;47.984;7.964;2023-06-14T08:26:23;96796.81;;;20.65;44.92
43701;BME280;58809;47.984;7.964;2023-06-14T08:29:24;96809.28;;;20.76;44.62
43701;BME280;58809;47.984;7.964;2023-06-14T08:32:26;96810.47;;;20.90;44.16
43701;BME280;58809;47.984;7.964;2023-06-14T08:35:28;96801.16;;;21.03;43.62
43701;BME280;58809;47.984;7.964;2023-06-14T08:38:30;96805.25;;;21.11;42.61
43701;BME280;58809;47.984;7.964;2023-06-14T08:41:32;96797.72;;;21.13;42.58
43701;BME280;58809;47.984;7.964;2023-06-14T08:44:34;96802.34;;;21.18;42.71
43701;BME280;58809;47.984;7.964;2023-06-14T08:47:36;96801.56;;;21.22;42.46
43701;BME280;58809;47.984;7.964;2023-06-14T08:50:43;96817.75;;;21.27;42.42
43701;BME280;58809;47.984;7.964;2023-06-14T08:53:46;96819.16;;;21.40;42.32
43701;BME280;58809;47.984;7.964;2023-06-14T08:56:52;96802.31;;;21.55;42.13
43701;BME280;58809;47.984;7.964;2023-06-14T08:59:54;96803.19;;;21.66;42.02
43701;BME280;58809;47.984;7.964;2023-06-14T09:02:57;96806.41;;;21.68;41.73
43701;BME280;58809;47.984;7.964;2023-06-14T09:05:59;96806.13;;;21.64;41.66
43701;BME280;58809;47.984;7.964;2023-06-14T09:09:02;96818.38;;;21.87;41.25
43701;BME280;58809;47.984;7.964;2023-06-14T09:12:15;96814.63;;;21.99;41.45
43701;BME280;58809;47.984;7.964;2023-06-14T09:15:17;96818.16;;;22.04;41.78
43701;BME280;58809;47.984;7.964;2023-06-14T09:18:19;96811.72;;;22.16;41.76
43701;BME280;58809;47.984;7.964;2023-06-14T09:21:23;96809.38;;;22.29;41.73
43701;BME280;58809;47.984;7.964;2023-06-14T09:24:25;96802.84;;;22.25;41.63
43701;BME280;58809;47.984;7.964;2023-06-14T09:27:28;96818.00;;;22.32;41.76
43701;BME280;58809;47.984;7.964;2023-06-14T09:30:30;96813.69;;;22.36;41.44
43701;BME280;58809;47.984;7.964;2023-06-14T09:33:31;96822.06;;;22.44;41.15
43701;BME280;58809;47.984;7.964;2023-06-14T09:36:33;96819.94;;;22.52;40.69
43701;BME280;58809;47.984;7.964;2023-06-14T09:39:35;96833.97;;;22.54;41.00
43701;BME280;58809;47.984;7.964;2023-06-14T09:42:37;96817.78;;;22.59;41.07
43701;BME280;58809;47.984;7.964;2023-06-14T09:45:39;96825.06;;;22.68;41.36
43701;BME280;58809;47.984;7.964;2023-06-14T09:48:47;96803.78;;;22.77;41.06
43701;BME280;58809;47.984;7.964;2023-06-14T09:51:51;96820.28;;;23.06;39.87
43701;BME280;58809;47.984;7.964;2023-06-14T09:54:54;96825.66;;;23.22;39.66
43701;BME280;58809;47.984;7.964;2023-06-14T09:57:57;96822.16;;;23.16;39.95
43701;BME280;58809;47.984;7.964;2023-06-14T10:01:01;96809.72;;;23.25;39.39
43701;BME280;58809;47.984;7.964;2023-06-14T10:04:06;96823.69;;;23.48;38.63
43701;BME280;58809;47.984;7.964;2023-06-14T10:07:18;96813.16;;;23.62;37.99
43701;BME280;58809;47.984;7.964;2023-06-14T10:10:20;96822.88;;;23.63;38.16
43701;BME280;58809;47.984;7.964;2023-06-14T10:13:23;96815.25;;;23.75;38.05
43701;BME280;58809;47.984;7.964;2023-06-14T10:16:31;96812.03;;;23.89;37.29
43701;BME280;58809;47.984;7.964;2023-06-14T10:19:40;96804.44;;;23.91;37.23
43701;BME280;58809;47.984;7.964;2023-06-14T10:22:52;96817.88;;;24.11;36.89
43701;BME280;58809;47.984;7.964;2023-06-14T10:25:59;96797.97;;;23.87;36.80
43701;BME280;58809;47.984;7.964;2023-06-14T10:29:08;96806.69;;;24.28;36.74
43701;BME280;58809;47.984;7.964;2023-06-14T10:32:10;96801.91;;;24.59;36.84
43701;BME280;58809;47.984;7.964;2023-06-14T10:35:16;96796.31;;;24.85;36.89
43701;BME280;58809;47.984;7.964;2023-06-14T10:38:30;96787.22;;;24.71;36.37
43701;BME280;58809;47.984;7.964;2023-06-14T10:41:38;96788.34;;;24.70;34.29
43701;BME280;58809;47.984;7.964;2023-06-14T10:44:49;96781.81;;;24.71;34.06
43701;BME280;58809;47.984;7.964;2023-06-14T10:47:50;96789.88;;;24.81;33.67
43701;BME280;58809;47.984;7.964;2023-06-14T10:51:00;96781.22;;;25.13;34.07
43701;BME280;58809;47.984;7.964;2023-06-14T10:54:03;96794.53;;;25.63;33.19
43701;BME280;58809;47.984;7.964;2023-06-14T10:57:06;96792.81;;;25.72;33.24
43701;BME280;58809;47.984;7.964;2023-06-14T11:00:10;96789.81;;;25.50;32.93
43701;BME280;58809;47.984;7.964;2023-06-14T11:06:47;96794.38;;;25.20;33.19
43701;BME280;58809;47.984;7.964;2023-06-14T11:13:24;96800.41;;;25.17;33.75
43701;BME280;58809;47.984;7.964;2023-06-14T11:16:26;96796.75;;;25.32;33.45
43701;BME280;58809;47.984;7.964;2023-06-14T11:19:29;96794.75;;;25.13;33.53
43701;BME280;58809;47.984;7.964;2023-06-14T11:22:39;96783.00;;;24.94;34.17
43701;BME280;58809;47.984;7.964;2023-06-14T11:25:40;96793.56;;;25.25;34.01
43701;BME280;58809;47.984;7.964;2023-06-14T11:28:42;96776.97;;;25.02;34.03
43701;BME280;58809;47.984;7.964;2023-06-14T11:31:44;96773.59;;;25.15;34.21
43701;BME280;58809;47.984;7.964;2023-06-14T11:34:49;96770.28;;;25.24;33.83
43701;BME280;58809;47.984;7.964;2023-06-14T11:37:54;96767.31;;;25.25;34.24
43701;BME280;58809;47.984;7.964;2023-06-14T11:41:00;96761.97;;;25.44;33.86
43701;BME280;58809;47.984;7.964;2023-06-14T11:44:02;96760.34;;;25.43;33.74
43701;BME280;58809;47.984;7.964;2023-06-14T11:47:04;96763.25;;;25.52;33.93
43701;BME280;58809;47.984;7.964;2023-06-14T11:50:07;96761.03;;;25.54;33.89
43701;BME280;58809;47.984;7.964;2023-06-14T11:53:12;96770.91;;;25.45;33.71
43701;BME280;58809;47.984;7.964;2023-06-14T11:56:14;96766.78;;;25.71;33.87
43701;BME280;58809;47.984;7.964;2023-06-14T11:59:20;96759.78;;;25.89;33.53
43701;BME280;58809;47.984;7.964;2023-06-14T12:02:22;96763.69;;;25.83;33.89
43701;BME280;58809;47.984;7.964;2023-06-14T12:05:26;96756.00;;;25.90;33.65
43701;BME280;58809;47.984;7.964;2023-06-14T12:08:35;96748.94;;;25.89;33.43
43701;BME280;58809;47.984;7.964;2023-06-14T12:11:40;96742.94;;;25.98;33.36
43701;BME280;58809;47.984;7.964;2023-06-14T12:14:42;96748.94;;;25.89;33.65
43701;BME280;58809;47.984;7.964;2023-06-14T12:17:44;96764.75;;;25.82;33.59
43701;BME280;58809;47.984;7.964;2023-06-14T12:20:50;96751.16;;;25.87;33.86
43701;BME280;58809;47.984;7.964;2023-06-14T12:23:52;96757.78;;;26.19;33.22
43701;BME280;58809;47.984;7.964;2023-06-14T12:26:54;96742.78;;;26.27;33.15
43701;BME280;58809;47.984;7.964;2023-06-14T12:30:00;96746.88;;;26.05;32.78
43701;BME280;58809;47.984;7.964;2023-06-14T12:33:03;96749.09;;;26.41;32.39
43701;BME280;58809;47.984;7.964;2023-06-14T12:36:07;96748.16;;;27.17;31.14
43701;BME280;58809;47.984;7.964;2023-06-14T12:39:09;96753.56;;;27.17;31.42
43701;BME280;58809;47.984;7.964;2023-06-14T12:42:10;96747.97;;;27.27;32.11
43701;BME280;58809;47.984;7.964;2023-06-14T12:45:12;96747.94;;;27.13;31.54
43701;BME280;58809;47.984;7.964;2023-06-14T12:48:15;96771.63;;;26.94;32.10
43701;BME280;58809;47.984;7.964;2023-06-14T12:51:17;96750.47;;;26.77;32.15
43701;BME280;58809;47.984;7.964;2023-06-14T12:54:18;96743.00;;;26.49;32.26
43701;BME280;58809;47.984;7.964;2023-06-14T12:57:39;96754.44;;;26.65;32.31
43701;BME280;58809;47.984;7.964;2023-06-14T13:00:41;96754.34;;;27.03;32.37
43701;BME280;58809;47.984;7.964;2023-06-14T13:03:42;96747.25;;;26.75;32.51
43701;BME280;58809;47.984;7.964;2023-06-14T13:06:44;96747.06;;;27.45;32.57
43701;BME280;58809;47.984;7.964;2023-06-14T13:09:46;96754.84;;;27.66;32.44
43701;BME280;58809;47.984;7.964;2023-06-14T13:12:47;96747.69;;;27.56;31.81
43701;BME280;58809;47.984;7.964;2023-06-14T13:15:49;96757.56;;;27.52;31.44
43701;BME280;58809;47.984;7.964;2023-06-14T13:18:51;96751.31;;;27.52;31.64
43701;BME280;58809;47.984;7.964;2023-06-14T13:21:53;96756.25;;;27.91;31.13
43701;BME280;58809;47.984;7.964;2023-06-14T13:24:55;96755.66;;;27.94;31.50
43701;BME280;58809;47.984;7.964;2023-06-14T13:27:56;96748.78;;;27.97;31.21
43701;BME280;58809;47.984;7.964;2023-06-14T13:30:58;96746.84;;;28.11;31.00
43701;BME280;58809;47.984;7.964;2023-06-14T13:33:59;96748.69;;;28.02;30.84
43701;BME280;58809;47.984;7.964;2023-06-14T13:37:01;96760.13;;;28.27;31.04
43701;BME280;58809;47.984;7.964;2023-06-14T13:40:04;96756.03;;;28.01;30.96
43701;BME280;58809;47.984;7.964;2023-06-14T13:43:05;96758.16;;;28.05;31.51
43701;BME280;58809;47.984;7.964;2023-06-14T13:46:07;96751.88;;;28.18;31.60
43701;BME280;58809;47.984;7.964;2023-06-14T13:49:09;96770.69;;;28.28;31.89
43701;BME280;58809;47.984;7.964;2023-06-14T13:52:11;96753.25;;;28.29;31.63
43701;BME280;58809;47.984;7.964;2023-06-14T13:55:14;96744.97;;;28.34;31.54
43701;BME280;58809;47.984;7.964;2023-06-14T13:58:16;96749.06;;;28.46;31.35
43701;BME280;58809;47.984;7.964;2023-06-14T14:01:35;96737.72;;;28.30;30.74
43701;BME280;58809;47.984;7.964;2023-06-14T14:04:55;96742.78;;;28.22;30.99
43701;BME280;58809;47.984;7.964;2023-06-14T14:08:14;96740.28;;;28.49;30.60
43701;BME280;58809;47.984;7.964;2023-06-14T14:11:16;96739.38;;;28.53;31.05
43701;BME280;58809;47.984;7.964;2023-06-14T14:14:17;96740.34;;;28.35;30.71
43701;BME280;58809;47.984;7.964;2023-06-14T14:17:37;96765.38;;;28.23;31.23
43701;BME280;58809;47.984;7.964;2023-06-14T14:20:56;96756.09;;;28.24;30.88
43701;BME280;58809;47.984;7.964;2023-06-14T14:23:58;96741.94;;;27.85;31.06
43701;BME280;58809;47.984;7.964;2023-06-14T14:26:59;96745.16;;;27.32;31.99
43701;BME280;58809;47.984;7.964;2023-06-14T14:30:19;96746.56;;;27.71;31.66
43701;BME280;58809;47.984;7.964;2023-06-14T14:33:25;96731.59;;;28.24;31.06
43701;BME280;58809;47.984;7.964;2023-06-14T14:36:26;96743.44;;;28.56;30.71
43701;BME280;58809;47.984;7.964;2023-06-14T14:39:28;96747.44;;;28.58;30.26
43701;BME280;58809;47.984;7.964;2023-06-14T14:42:29;96745.75;;;28.49;30.55
43701;BME280;58809;47.984;7.964;2023-06-14T14:45:31;96750.75;;;28.19;31.12
43701;BME280;58809;47.984;7.964;2023-06-14T14:48:32;96749.09;;;28.32;30.92
43701;BME280;58809;47.984;7.964;2023-06-14T14:51:34;96753.88;;;28.85;30.81
43701;BME280;58809;47.984;7.964;2023-06-14T14:54:35;96745.84;;;29.74;29.65
43701;BME280;58809;47.984;7.964;2023-06-14T14:57:37;96747.31;;;29.89;29.49
43701;BME280;58809;47.984;7.964;2023-06-14T15:00:38;96754.34;;;29.41;29.46
43701;BME280;58809;47.984;7.964;2023-06-14T15:03:40;96738.31;;;29.40;30.02
43701;BME280;58809;47.984;7.964;2023-06-14T15:06:59;96748.94;;;29.90;29.55
43701;BME280;58809;47.984;7.964;2023-06-14T15:10:01;96737.41;;;30.19;29.33
43701;BME280;58809;47.984;7.964;2023-06-14T15:13:03;96756.09;;;30.52;29.15
43701;BME280;58809;47.984;7.964;2023-06-14T15:16:05;96763.06;;;31.70;28.49
43701;BME280;58809;47.984;7.964;2023-06-14T15:19:06;96751.56;;;33.70;26.54
43701;BME280;58809;47.984;7.964;2023-06-14T15:22:08;96764.47;;;35.76;23.96
43701;BME280;58809;47.984;7.964;2023-06-14T15:25:09;96751.72;;;37.40;22.53
43701;BME280;58809;47.984;7.964;2023-06-14T15:28:11;96754.25;;;39.68;21.09
43701;BME280;58809;47.984;7.964;2023-06-14T15:31:13;96750.72;;;41.21;19.98
43701;BME280;58809;47.984;7.964;2023-06-14T15:34:14;96752.56;;;42.68;18.89
43701;BME280;58809;47.984;7.964;2023-06-14T15:37:16;96747.88;;;42.50;18.54
43701;BME280;58809;47.984;7.964;2023-06-14T15:40:18;96754.72;;;42.03;18.69
43701;BME280;58809;47.984;7.964;2023-06-14T15:43:19;96751.94;;;42.21;18.97
43701;BME280;58809;47.984;7.964;2023-06-14T15:46:21;96749.19;;;41.88;18.65
43701;BME280;58809;47.984;7.964;2023-06-14T15:49:24;96743.56;;;42.31;18.58
43701;BME280;58809;47.984;7.964;2023-06-14T15:52:25;96748.63;;;42.62;18.40
43701;BME280;58809;47.984;7.964;2023-06-14T15:55:27;96749.19;;;41.81;18.72
43701;BME280;58809;47.984;7.964;2023-06-14T15:58:28;96748.06;;;42.99;17.90
43701;BME280;58809;47.984;7.964;2023-06-14T16:01:30;96752.94;;;43.44;17.59
43701;BME280;58809;47.984;7.964;2023-06-14T16:04:32;96749.88;;;43.31;17.66
43701;BME280;58809;47.984;7.964;2023-06-14T16:07:34;96744.03;;;43.07;17.63
43701;BME280;58809;47.984;7.964;2023-06-14T16:10:35;96737.94;;;43.31;17.74
43701;BME280;58809;47.984;7.964;2023-06-14T16:13:41;96744.69;;;42.56;17.88
43701;BME280;58809;47.984;7.964;2023-06-14T16:16:43;96748.00;;;41.82;18.20